Time,TemperatureF,DewpointF,PressureIn,WindDirection,WindDirectionDegrees,WindSpeedMPH,WindSpeedGustMPH,Humidity,HourlyPrecipIn,Conditions,Clouds,dailyrainin,SoftwareType,DateUTC
2013-06-15 00:03:00,44.6,27.6,29.96,North,0,0.0,0.0,51,0.00,,SKC,0.00,VWS V13.00,2013-06-15 06:03:00,
2013-06-15 00:08:00,44.6,27.1,29.96,North,0,0.0,0.0,50,0.00,,SKC,0.00,VWS V13.00,2013-06-15 06:08:00,
2013-06-15 00:13:00,44.4,27.0,29.96,North,0,0.0,0.0,50,0.00,,SKC,0.00,VWS V13.00,2013-06-15 06:13:00,
2013-06-15 00:18:00,44.1,26.6,29.96,North,0,0.0,0.0,50,0.00,,SKC,0.00,VWS V13.00,2013-06-15 06:18:00,
2013-06-15 00:23:00,44.1,26.6,29.96,North,0,0.0,0.0,50,0.00,,SKC,0.00,VWS V13.00,2013-06-15 06:23:00,
2013-06-15 00:28:00,43.7,26.3,29.96,North,0,0.0,0.0,50,0.00,,SKC,0.00,VWS V13.00,2013-06-15 06:28:00,
2013-06-15 00:33:00,43.7,26.3,29.96,North,0,0.0,0.0,50,0.00,,SKC,0.00,VWS V13.00,2013-06-15 06:33:00,
2013-06-15 00:38:00,43.7,26.3,29.96,North,0,0.0,0.0,50,0.00,,SKC,0.00,VWS V13.00,2013-06-15 06:38:00,
2013-06-15 00:43:00,43.7,26.3,29.96,North,0,0.0,0.0,50,0.00,,SKC,0.00,VWS V13.00,2013-06-15 06:43:00,
2013-06-15 00:48:00,43.5,26.1,29.96,North,0,0.0,0.0,50,0.00,,SKC,0.00,VWS V13.00,2013-06-15 06:48:00,
2013-06-15 00:53:00,43.5,26.1,29.96,North,0,0.0,0.0,50,0.00,,SKC,0.00,VWS V13.00,2013-06-15 06:53:00,
2013-06-15 00:58:00,43.5,25.6,29.96,North,0,0.0,0.0,49,0.00,,SKC,0.00,VWS V13.00,2013-06-15 06:58:00,
2013-06-15 01:03:00,43.3,25.5,29.96,North,0,0.0,0.0,49,0.00,,SKC,0.00,VWS V13.00,2013-06-15 07:03:00,
2013-06-15 01:08:00,43.3,26.0,29.96,North,0,0.0,0.0,50,0.00,,SKC,0.00,VWS V13.00,2013-06-15 07:08:00,
2013-06-15 01:13:00,43.3,26.0,29.96,North,0,0.0,0.0,50,0.00,,SKC,0.00,VWS V13.00,2013-06-15 07:13:00,
2013-06-15 01:18:00,43.2,25.8,29.96,North,0,0.0,0.0,50,0.00,,SKC,0.00,VWS V13.00,2013-06-15 07:18:00,
2013-06-15 01:23:00,43.0,25.6,29.96,North,0,0.0,0.0,50,0.00,,SKC,0.00,VWS V13.00,2013-06-15 07:23:00,
2013-06-15 01:28:00,43.0,25.6,29.93,North,0,0.0,0.0,50,0.00,,SKC,0.00,VWS V13.00,2013-06-15 07:28:00,
2013-06-15 01:33:00,42.8,25.5,29.93,North,0,0.0,0.0,50,0.00,,SKC,0.00,VWS V13.00,2013-06-15 07:33:00,
2013-06-15 01:38:00,42.8,25.5,29.93,North,0,0.0,0.0,50,0.00,,SKC,0.00,VWS V13.00,2013-06-15 07:38:00,
2013-06-15 01:43:00,42.4,25.6,29.96,North,0,0.0,0.0,51,0.00,,SKC,0.00,VWS V13.00,2013-06-15 07:43:00,
2013-06-15 01:48:00,42.4,25.6,29.96,North,0,0.0,0.0,51,0.00,,SKC,0.00,VWS V13.00,2013-06-15 07:48:00,
2013-06-15 01:53:00,42.3,25.4,29.96,North,0,0.0,0.0,51,0.00,,SKC,0.00,VWS V13.00,2013-06-15 07:53:00,
2013-06-15 01:58:00,42.3,25.4,29.93,North,0,0.0,0.0,51,0.00,,SKC,0.00,VWS V13.00,2013-06-15 07:58:00,
2013-06-15 02:03:00,42.3,25.4,29.93,North,0,0.0,0.0,51,0.00,,SKC,0.00,VWS V13.00,2013-06-15 08:03:00,
2013-06-15 02:09:00,42.1,25.3,29.93,North,0,0.0,0.0,51,0.00,,SKC,0.00,VWS V13.00,2013-06-15 08:09:00,
2013-06-15 02:14:00,42.1,25.3,29.93,North,0,0.0,0.0,51,0.00,,SKC,0.00,VWS V13.00,2013-06-15 08:14:00,
2013-06-15 02:19:00,41.9,22.1,29.93,North,0,0.0,0.0,45,0.00,,SKC,0.00,VWS V13.00,2013-06-15 08:19:00,
2013-06-15 02:24:00,42.4,24.6,29.93,North,0,0.0,0.0,49,0.00,,SKC,0.00,VWS V13.00,2013-06-15 08:24:00,
2013-06-15 02:29:00,42.6,24.8,29.93,North,0,0.0,0.0,49,0.00,,SKC,0.00,VWS V13.00,2013-06-15 08:29:00,
2013-06-15 02:34:00,42.4,25.1,29.93,North,0,0.0,0.0,50,0.00,,SKC,0.00,VWS V13.00,2013-06-15 08:34:00,
2013-06-15 02:39:00,42.4,25.1,29.93,North,0,0.0,0.0,50,0.00,,SKC,0.00,VWS V13.00,2013-06-15 08:39:00,
2013-06-15 02:44:00,42.4,25.1,29.93,North,0,0.0,0.0,50,0.00,,SKC,0.00,VWS V13.00,2013-06-15 08:44:00,
2013-06-15 02:49:00,42.3,25.0,29.93,North,0,0.0,0.0,50,0.00,,SKC,0.00,VWS V13.00,2013-06-15 08:49:00,
2013-06-15 02:54:00,42.3,25.0,29.93,North,0,0.0,0.0,50,0.00,,SKC,0.00,VWS V13.00,2013-06-15 08:54:00,
2013-06-15 02:59:00,42.1,24.8,29.93,North,0,0.0,0.0,50,0.00,,SKC,0.00,VWS V13.00,2013-06-15 08:59:00,
2013-06-15 03:04:00,41.9,25.1,29.93,North,0,0.0,0.0,51,0.00,,SKC,0.00,VWS V13.00,2013-06-15 09:04:00,
2013-06-15 03:09:00,41.7,24.9,29.93,North,0,0.0,0.0,51,0.00,,SKC,0.00,VWS V13.00,2013-06-15 09:09:00,
2013-06-15 03:14:00,41.5,24.8,29.93,North,0,0.0,0.0,51,0.00,,SKC,0.00,VWS V13.00,2013-06-15 09:14:00,
2013-06-15 03:19:00,41.2,24.4,29.93,North,0,0.0,0.0,51,0.00,,SKC,0.00,VWS V13.00,2013-06-15 09:19:00,
2013-06-15 03:24:00,41.2,24.9,29.93,North,0,0.0,0.0,52,0.00,,SKC,0.00,VWS V13.00,2013-06-15 09:24:00,
2013-06-15 03:29:00,41.0,24.7,29.93,North,0,0.0,0.0,52,0.00,,SKC,0.00,VWS V13.00,2013-06-15 09:29:00,
2013-06-15 03:34:00,41.0,24.7,29.93,North,0,0.0,0.0,52,0.00,,SKC,0.00,VWS V13.00,2013-06-15 09:34:00,
2013-06-15 03:39:00,40.8,25.0,29.93,North,0,0.0,0.0,53,0.00,,SKC,0.00,VWS V13.00,2013-06-15 09:39:00,
2013-06-15 03:44:00,40.8,25.0,29.93,North,0,0.0,0.0,53,0.00,,SKC,0.00,VWS V13.00,2013-06-15 09:44:00,
2013-06-15 03:49:00,40.8,25.0,29.93,North,0,0.0,0.0,53,0.00,,SKC,0.00,VWS V13.00,2013-06-15 09:49:00,
2013-06-15 03:54:00,40.8,25.0,29.93,North,0,0.0,0.0,53,0.00,,SKC,0.00,VWS V13.00,2013-06-15 09:54:00,
2013-06-15 03:59:00,40.6,24.9,29.93,North,0,0.0,0.0,53,0.00,,SKC,0.00,VWS V13.00,2013-06-15 09:59:00,
2013-06-15 04:04:00,40.5,24.7,29.93,North,0,0.0,0.0,53,0.00,,SKC,0.00,VWS V13.00,2013-06-15 10:04:00,
2013-06-15 04:09:00,40.5,25.1,29.93,North,0,0.0,0.0,54,0.00,,SKC,0.00,VWS V13.00,2013-06-15 10:09:00,
2013-06-15 04:14:00,40.3,25.0,29.93,North,0,0.0,0.0,54,0.00,,SKC,0.00,VWS V13.00,2013-06-15 10:14:00,
2013-06-15 04:20:00,40.1,24.8,29.93,North,0,0.0,0.0,54,0.00,,SKC,0.00,VWS V13.00,2013-06-15 10:20:00,
2013-06-15 04:25:00,39.9,24.6,29.93,North,0,0.0,0.0,54,0.00,,SKC,0.00,VWS V13.00,2013-06-15 10:25:00,
2013-06-15 04:30:00,39.7,24.5,29.93,North,0,0.0,0.0,54,0.00,,SKC,0.00,VWS V13.00,2013-06-15 10:30:00,
2013-06-15 04:35:00,39.6,24.7,29.93,North,0,0.0,0.0,55,0.00,,SKC,0.00,VWS V13.00,2013-06-15 10:35:00,
2013-06-15 04:40:00,39.4,24.6,29.93,North,0,0.0,0.0,55,0.00,,SKC,0.00,VWS V13.00,2013-06-15 10:40:00,
2013-06-15 04:45:00,39.4,24.6,29.93,North,0,0.0,0.0,55,0.00,,SKC,0.00,VWS V13.00,2013-06-15 10:45:00,
2013-06-15 04:50:00,39.2,24.8,29.93,North,0,0.0,0.0,56,0.00,,SKC,0.00,VWS V13.00,2013-06-15 10:50:00,
2013-06-15 04:55:00,39.0,24.7,29.93,North,0,0.0,0.0,56,0.00,,SKC,0.00,VWS V13.00,2013-06-15 10:55:00,
2013-06-15 05:00:00,38.8,24.5,29.93,North,0,0.0,0.0,56,0.00,,SKC,0.00,VWS V13.00,2013-06-15 11:00:00,
2013-06-15 05:05:00,38.7,24.3,29.93,North,0,0.0,0.0,56,0.00,,SKC,0.00,VWS V13.00,2013-06-15 11:05:00,
2013-06-15 05:10:00,38.7,24.3,29.93,North,0,0.0,0.0,56,0.00,,SKC,0.00,VWS V13.00,2013-06-15 11:10:00,
2013-06-15 05:15:00,38.7,24.3,29.93,North,0,0.0,0.0,56,0.00,,SKC,0.00,VWS V13.00,2013-06-15 11:15:00,
2013-06-15 05:20:00,38.7,24.3,29.93,North,0,0.0,0.0,56,0.00,,SKC,0.00,VWS V13.00,2013-06-15 11:20:00,
2013-06-15 05:25:00,38.7,24.3,29.93,North,0,0.0,0.0,56,0.00,,SKC,0.00,VWS V13.00,2013-06-15 11:25:00,
2013-06-15 05:30:00,38.7,24.3,29.93,North,0,0.0,0.0,56,0.00,,SKC,0.00,VWS V13.00,2013-06-15 11:30:00,
2013-06-15 05:35:00,38.7,24.8,29.93,North,0,0.0,0.0,57,0.00,,SKC,0.00,VWS V13.00,2013-06-15 11:35:00,
2013-06-15 05:40:00,38.5,24.6,29.93,North,0,0.0,0.0,57,0.00,,SKC,0.00,VWS V13.00,2013-06-15 11:40:00,
2013-06-15 05:45:00,38.1,23.8,29.96,North,0,0.0,0.0,56,0.00,,SKC,0.00,VWS V13.00,2013-06-15 11:45:00,
2013-06-15 05:50:00,37.9,24.1,29.96,North,0,0.0,0.0,57,0.00,,SKC,0.00,VWS V13.00,2013-06-15 11:50:00,
2013-06-15 05:55:00,37.9,24.5,29.96,North,0,0.0,0.0,58,0.00,,SKC,0.00,VWS V13.00,2013-06-15 11:55:00,
2013-06-15 06:00:00,37.8,24.3,29.96,North,0,0.0,0.0,58,0.00,,SKC,0.00,VWS V13.00,2013-06-15 12:00:00,
2013-06-15 06:05:00,37.6,24.2,29.96,North,0,0.0,0.0,58,0.00,,SKC,0.00,VWS V13.00,2013-06-15 12:05:00,
2013-06-15 06:10:00,37.6,24.6,29.96,North,0,0.0,0.0,59,0.00,,SKC,0.00,VWS V13.00,2013-06-15 12:10:00,
2013-06-15 06:15:00,37.6,24.6,29.96,North,0,0.0,0.0,59,0.00,,SKC,0.00,VWS V13.00,2013-06-15 12:15:00,
2013-06-15 06:21:00,37.6,25.0,29.96,North,0,0.0,0.0,60,0.00,,SKC,0.00,VWS V13.00,2013-06-15 12:21:00,
2013-06-15 06:26:00,37.6,25.0,29.96,North,0,0.0,0.0,60,0.00,,SKC,0.00,VWS V13.00,2013-06-15 12:26:00,
2013-06-15 06:31:00,37.8,25.5,29.96,North,0,0.0,0.0,61,0.00,,SKC,0.00,VWS V13.00,2013-06-15 12:31:00,
2013-06-15 06:36:00,37.9,25.7,29.96,North,0,0.0,0.0,61,0.00,,SKC,0.00,VWS V13.00,2013-06-15 12:36:00,
2013-06-15 06:41:00,38.3,26.0,29.96,North,0,0.0,0.0,61,0.00,,SKC,0.00,VWS V13.00,2013-06-15 12:41:00,
2013-06-15 06:46:00,38.7,26.4,29.96,North,0,0.0,0.0,61,0.00,,SKC,0.00,VWS V13.00,2013-06-15 12:46:00,
2013-06-15 06:51:00,38.8,24.1,29.96,North,0,0.0,0.0,55,0.00,,SKC,0.00,VWS V13.00,2013-06-15 12:51:00,
2013-06-15 06:56:00,39.4,25.0,29.96,North,0,0.0,0.0,56,0.00,,SKC,0.00,VWS V13.00,2013-06-15 12:56:00,
2013-06-15 07:01:00,39.7,25.3,29.96,North,0,0.0,0.0,56,0.00,,SKC,0.00,VWS V13.00,2013-06-15 13:01:00,
2013-06-15 07:06:00,40.3,25.4,29.96,North,0,0.0,0.0,55,0.00,,SKC,0.00,VWS V13.00,2013-06-15 13:06:00,
2013-06-15 07:11:00,40.6,25.3,29.96,North,0,0.0,0.0,54,0.00,,SKC,0.00,VWS V13.00,2013-06-15 13:11:00,
2013-06-15 07:16:00,41.2,25.4,29.96,North,0,0.0,0.0,53,0.00,,SKC,0.00,VWS V13.00,2013-06-15 13:16:00,
2013-06-15 07:21:00,42.3,26.8,29.96,North,0,0.0,0.0,54,0.00,,SKC,0.00,VWS V13.00,2013-06-15 13:21:00,
2013-06-15 07:26:00,43.2,26.7,29.96,North,0,0.0,0.0,52,0.00,,SKC,0.00,VWS V13.00,2013-06-15 13:26:00,
2013-06-15 07:31:00,43.9,27.9,29.96,North,0,0.0,0.0,53,0.00,,SKC,0.00,VWS V13.00,2013-06-15 13:31:00,
2013-06-15 07:36:00,44.4,27.0,29.96,North,0,0.0,0.0,50,0.00,,SKC,0.00,VWS V13.00,2013-06-15 13:36:00,
2013-06-15 07:41:00,44.8,27.3,29.96,North,0,0.0,0.0,50,0.00,,SKC,0.00,VWS V13.00,2013-06-15 13:41:00,
2013-06-15 07:46:00,45.3,27.8,29.96,North,0,0.0,0.0,50,0.00,,SKC,0.00,VWS V13.00,2013-06-15 13:46:00,
2013-06-15 07:51:00,46.0,28.9,29.96,North,0,0.0,0.0,51,0.00,,SKC,0.00,VWS V13.00,2013-06-15 13:51:00,
2013-06-15 07:56:00,46.6,29.4,29.96,North,0,0.0,0.0,51,0.00,,SKC,0.00,VWS V13.00,2013-06-15 13:56:00,
2013-06-15 08:01:00,47.1,29.9,29.96,North,0,0.0,0.0,51,0.00,,SKC,0.00,VWS V13.00,2013-06-15 14:01:00,
2013-06-15 08:06:00,47.5,28.8,29.96,North,0,0.0,0.0,48,0.00,,SKC,0.00,VWS V13.00,2013-06-15 14:06:00,
2013-06-15 08:11:00,48.0,29.8,29.96,North,0,0.0,0.0,49,0.00,,SKC,0.00,VWS V13.00,2013-06-15 14:11:00,
2013-06-15 08:16:00,48.4,30.1,29.96,North,0,0.0,0.0,49,0.00,,SKC,0.00,VWS V13.00,2013-06-15 14:16:00,
2013-06-15 08:21:00,48.7,31.4,29.96,North,0,0.0,0.0,51,0.00,,SKC,0.00,VWS V13.00,2013-06-15 14:21:00,
2013-06-15 08:26:00,49.1,31.3,29.96,North,0,0.0,0.0,50,0.00,,SKC,0.00,VWS V13.00,2013-06-15 14:26:00,
2013-06-15 08:31:00,49.8,31.9,29.96,North,0,0.0,0.0,50,0.00,,SKC,0.00,VWS V13.00,2013-06-15 14:31:00,
2013-06-15 08:37:00,50.7,32.8,29.96,North,0,0.0,0.0,50,0.00,,SKC,0.00,VWS V13.00,2013-06-15 14:37:00,
2013-06-15 08:42:00,51.8,32.8,29.96,North,0,0.0,0.0,48,0.00,,SKC,0.00,VWS V13.00,2013-06-15 14:42:00,
2013-06-15 08:47:00,52.7,32.0,29.96,North,0,0.0,0.0,45,0.00,,SKC,0.00,VWS V13.00,2013-06-15 14:47:00,
2013-06-15 08:52:00,53.6,29.9,29.96,North,0,0.0,0.0,40,0.00,,SKC,0.00,VWS V13.00,2013-06-15 14:52:00,
2013-06-15 08:57:00,54.1,29.8,29.96,North,0,0.0,0.0,39,0.00,,SKC,0.00,VWS V13.00,2013-06-15 14:57:00,
2013-06-15 09:02:00,54.7,29.6,29.96,North,0,0.0,0.0,38,0.00,,SKC,0.00,VWS V13.00,2013-06-15 15:02:00,
2013-06-15 09:07:00,55.4,30.2,29.96,North,0,0.0,0.0,38,0.00,,SKC,0.00,VWS V13.00,2013-06-15 15:07:00,
2013-06-15 09:12:00,56.1,30.9,29.96,North,0,0.0,0.0,38,0.00,,SKC,0.00,VWS V13.00,2013-06-15 15:12:00,
2013-06-15 09:17:00,56.7,30.7,29.96,North,0,0.0,0.0,37,0.00,,SKC,0.00,VWS V13.00,2013-06-15 15:17:00,
2013-06-15 09:22:00,57.6,30.8,29.96,North,0,0.0,0.0,36,0.00,,SKC,0.00,VWS V13.00,2013-06-15 15:22:00,
2013-06-15 09:27:00,58.1,31.3,29.96,North,0,0.0,0.0,36,0.00,,SKC,0.00,VWS V13.00,2013-06-15 15:27:00,
2013-06-15 09:32:00,58.6,31.1,29.96,North,0,0.0,0.0,35,0.00,,SKC,0.00,VWS V13.00,2013-06-15 15:32:00,
2013-06-15 09:37:00,59.4,31.7,29.96,North,0,0.0,0.0,35,0.00,,SKC,0.00,VWS V13.00,2013-06-15 15:37:00,
2013-06-15 09:42:00,60.4,32.7,29.96,North,0,0.0,0.0,35,0.00,,SKC,0.00,VWS V13.00,2013-06-15 15:42:00,
2013-06-15 09:47:00,61.0,33.2,29.96,North,0,0.0,0.0,35,0.00,,SKC,0.00,VWS V13.00,2013-06-15 15:47:00,
2013-06-15 09:52:00,61.7,33.1,29.96,North,0,0.0,0.0,34,0.00,,SKC,0.00,VWS V13.00,2013-06-15 15:52:00,
2013-06-15 09:57:00,62.1,33.4,29.93,North,0,0.0,0.0,34,0.00,,SKC,0.00,VWS V13.00,2013-06-15 15:57:00,
2013-06-15 10:02:00,62.4,33.7,29.93,North,0,0.0,0.0,34,0.00,,SKC,0.00,VWS V13.00,2013-06-15 16:02:00,
2013-06-15 10:07:00,63.0,33.4,29.93,North,0,0.0,0.0,33,0.00,,SKC,0.00,VWS V13.00,2013-06-15 16:07:00,
2013-06-15 10:12:00,63.5,34.7,29.93,North,0,0.0,0.0,34,0.00,,SKC,0.00,VWS V13.00,2013-06-15 16:12:00,
2013-06-15 10:17:00,64.0,32.8,29.93,North,0,0.0,0.0,31,0.00,,SKC,0.00,VWS V13.00,2013-06-15 16:17:00,
2013-06-15 10:22:00,63.9,34.2,29.93,North,0,0.0,0.0,33,0.00,,SKC,0.00,VWS V13.00,2013-06-15 16:22:00,
2013-06-15 10:27:00,64.2,34.5,29.93,North,0,0.0,0.0,33,0.00,,SKC,0.00,VWS V13.00,2013-06-15 16:27:00,
2013-06-15 10:32:00,64.9,34.4,29.93,North,0,0.0,0.0,32,0.00,,SKC,0.00,VWS V13.00,2013-06-15 16:32:00,
2013-06-15 10:37:00,65.3,33.1,29.93,North,0,0.0,0.0,30,0.00,,SKC,0.00,VWS V13.00,2013-06-15 16:37:00,
2013-06-15 10:43:00,65.7,34.2,29.93,North,0,0.0,0.0,31,0.00,,SKC,0.00,VWS V13.00,2013-06-15 16:43:00,
2013-06-15 10:48:00,66.0,35.3,29.93,North,0,0.0,0.0,32,0.00,,SKC,0.00,VWS V13.00,2013-06-15 16:48:00,
2013-06-15 10:53:00,66.7,36.0,29.93,North,0,0.0,0.0,32,0.00,,SKC,0.00,VWS V13.00,2013-06-15 16:53:00,
2013-06-15 10:58:00,67.3,35.6,29.93,North,0,0.0,0.0,31,0.00,,SKC,0.00,VWS V13.00,2013-06-15 16:58:00,
2013-06-15 11:03:00,67.5,35.0,29.93,North,0,0.0,0.0,30,0.00,,SKC,0.00,VWS V13.00,2013-06-15 17:03:00,
2013-06-15 11:08:00,67.3,34.0,29.93,North,0,0.0,0.0,29,0.00,,SKC,0.00,VWS V13.00,2013-06-15 17:08:00,
2013-06-15 11:13:00,68.0,37.1,29.93,North,0,0.0,0.0,32,0.00,,SKC,0.00,VWS V13.00,2013-06-15 17:13:00,
2013-06-15 11:18:00,68.4,35.8,29.93,North,0,0.0,0.0,30,0.00,,SKC,0.00,VWS V13.00,2013-06-15 17:18:00,
2013-06-15 11:23:00,68.4,34.0,29.93,North,0,0.0,0.0,28,0.00,,SKC,0.00,VWS V13.00,2013-06-15 17:23:00,
2013-06-15 11:28:00,68.9,36.2,29.93,North,0,0.0,0.0,30,0.00,,SKC,0.00,VWS V13.00,2013-06-15 17:28:00,
2013-06-15 11:33:00,69.1,34.6,29.93,North,0,0.0,0.0,28,0.00,,SKC,0.00,VWS V13.00,2013-06-15 17:33:00,
2013-06-15 11:38:00,69.6,36.0,29.93,North,0,0.0,0.0,29,0.00,,SKC,0.00,VWS V13.00,2013-06-15 17:38:00,
2013-06-15 11:43:00,70.2,34.7,29.93,North,0,0.0,0.0,27,0.00,,SKC,0.00,VWS V13.00,2013-06-15 17:43:00,
2013-06-15 11:48:00,70.2,32.7,29.93,North,0,0.0,0.0,25,0.00,,SKC,0.00,VWS V13.00,2013-06-15 17:48:00,
2013-06-15 11:53:00,70.0,33.5,29.93,North,0,0.0,0.0,26,0.00,,SKC,0.00,VWS V13.00,2013-06-15 17:53:00,
2013-06-15 11:58:00,70.3,33.9,29.93,North,0,0.0,0.0,26,0.00,,SKC,0.00,VWS V13.00,2013-06-15 17:58:00,
2013-06-15 12:03:00,71.1,33.5,29.93,North,0,0.0,0.0,25,0.00,,SKC,0.00,VWS V13.00,2013-06-15 18:03:00,
2013-06-15 12:08:00,71.4,33.8,29.93,North,0,0.0,0.0,25,0.00,,SKC,0.00,VWS V13.00,2013-06-15 18:08:00,
2013-06-15 12:13:00,72.1,34.4,29.93,North,0,0.0,0.0,25,0.00,,SKC,0.00,VWS V13.00,2013-06-15 18:13:00,
2013-06-15 12:18:00,72.5,33.7,29.93,North,0,0.0,0.0,24,0.00,,SKC,0.00,VWS V13.00,2013-06-15 18:18:00,
2013-06-15 12:23:00,72.9,35.0,29.93,North,0,0.0,0.0,25,0.00,,SKC,0.00,VWS V13.00,2013-06-15 18:23:00,
2013-06-15 12:28:00,73.9,35.9,29.93,North,0,0.0,0.0,25,0.00,,SKC,0.00,VWS V13.00,2013-06-15 18:28:00,
2013-06-15 12:33:00,74.5,36.4,29.93,North,0,0.0,0.0,25,0.00,,SKC,0.00,VWS V13.00,2013-06-15 18:33:00,
2013-06-15 12:38:00,75.4,36.1,29.93,North,0,0.0,0.0,24,0.00,,SKC,0.00,VWS V13.00,2013-06-15 18:38:00,
2013-06-15 12:43:00,76.3,36.9,29.93,North,0,0.0,0.0,24,0.00,,SKC,0.00,VWS V13.00,2013-06-15 18:43:00,
2013-06-15 12:48:00,76.6,37.2,29.93,North,0,0.0,0.0,24,0.00,,SKC,0.00,VWS V13.00,2013-06-15 18:48:00,
2013-06-15 12:54:00,76.3,36.9,29.93,North,0,0.0,0.0,24,0.00,,SKC,0.00,VWS V13.00,2013-06-15 18:54:00,
2013-06-15 12:59:00,75.6,35.2,29.93,North,0,0.0,0.0,23,0.00,,SKC,0.00,VWS V13.00,2013-06-15 18:59:00,
2013-06-15 13:04:00,74.8,35.7,29.93,North,0,0.0,0.0,24,0.00,,SKC,0.00,VWS V13.00,2013-06-15 19:04:00,
2013-06-15 13:09:00,73.9,34.9,29.93,North,0,0.0,0.0,24,0.00,,SKC,0.00,VWS V13.00,2013-06-15 19:09:00,
2013-06-15 13:14:00,73.6,35.6,29.93,North,0,0.0,0.0,25,0.00,,SKC,0.00,VWS V13.00,2013-06-15 19:14:00,
2013-06-15 13:19:00,73.6,35.6,29.93,North,0,0.0,0.0,25,0.00,,SKC,0.00,VWS V13.00,2013-06-15 19:19:00,
2013-06-15 13:24:00,73.8,35.8,29.93,North,0,0.0,0.0,25,0.00,,SKC,0.00,VWS V13.00,2013-06-15 19:24:00,
2013-06-15 13:29:00,74.7,36.5,29.93,North,0,0.0,0.0,25,0.00,,SKC,0.00,VWS V13.00,2013-06-15 19:29:00,
2013-06-15 13:34:00,75.4,37.2,29.93,North,0,0.0,0.0,25,0.00,,SKC,0.00,VWS V13.00,2013-06-15 19:34:00,
2013-06-15 13:39:00,76.3,36.9,29.93,North,0,0.0,0.0,24,0.00,,SKC,0.00,VWS V13.00,2013-06-15 19:39:00,
2013-06-15 13:44:00,76.3,36.9,29.93,North,0,0.0,0.0,24,0.00,,SKC,0.00,VWS V13.00,2013-06-15 19:44:00,
2013-06-15 13:49:00,76.6,37.2,29.93,North,0,0.0,0.0,24,0.00,,SKC,0.00,VWS V13.00,2013-06-15 19:49:00,
2013-06-15 13:54:00,76.6,36.1,29.93,North,0,0.0,0.0,23,0.00,,SKC,0.00,VWS V13.00,2013-06-15 19:54:00,
2013-06-15 13:59:00,76.3,36.9,29.93,North,0,0.0,0.0,24,0.00,,SKC,0.00,VWS V13.00,2013-06-15 19:59:00,
2013-06-15 14:04:00,76.6,37.2,29.93,North,0,0.0,0.0,24,0.00,,SKC,0.00,VWS V13.00,2013-06-15 20:04:00,
2013-06-15 14:09:00,77.4,37.8,29.93,North,0,0.0,0.0,24,0.00,,SKC,0.00,VWS V13.00,2013-06-15 20:09:00,
2013-06-15 14:14:00,77.9,37.2,29.93,North,0,0.0,0.0,23,0.00,,SKC,0.00,VWS V13.00,2013-06-15 20:14:00,
2013-06-15 14:19:00,77.7,35.9,29.93,North,0,0.0,0.0,22,0.00,,SKC,0.00,VWS V13.00,2013-06-15 20:19:00,
2013-06-15 14:24:00,77.4,36.7,29.93,North,0,0.0,0.0,23,0.00,,SKC,0.00,VWS V13.00,2013-06-15 20:24:00,
2013-06-15 14:29:00,77.7,35.9,29.91,North,0,0.0,0.0,22,0.00,,SKC,0.00,VWS V13.00,2013-06-15 20:29:00,
2013-06-15 14:34:00,77.9,36.0,29.91,North,0,0.0,0.0,22,0.00,,SKC,0.00,VWS V13.00,2013-06-15 20:34:00,
2013-06-15 14:39:00,78.3,36.3,29.91,North,0,0.0,0.0,22,0.00,,SKC,0.00,VWS V13.00,2013-06-15 20:39:00,
2013-06-15 14:44:00,77.4,34.4,29.91,North,0,0.0,0.0,21,0.00,,SKC,0.00,VWS V13.00,2013-06-15 20:44:00,
2013-06-15 14:49:00,76.6,35.0,29.91,North,0,0.0,0.0,22,0.00,,SKC,0.00,VWS V13.00,2013-06-15 20:49:00,
2013-06-15 14:54:00,76.5,34.8,29.91,North,0,0.0,0.0,22,0.00,,SKC,0.00,VWS V13.00,2013-06-15 20:54:00,
2013-06-15 14:59:00,75.6,34.1,29.91,North,0,0.0,0.0,22,0.00,,SKC,0.00,VWS V13.00,2013-06-15 20:59:00,
2013-06-15 15:04:00,75.2,33.8,29.91,North,0,0.0,0.0,22,0.00,,SKC,0.00,VWS V13.00,2013-06-15 21:04:00,
2013-06-15 15:09:00,75.4,33.9,29.91,North,0,0.0,0.0,22,0.00,,SKC,0.00,VWS V13.00,2013-06-15 21:09:00,
2013-06-15 15:14:00,75.4,33.9,29.91,North,0,0.0,0.0,22,0.00,,SKC,0.00,VWS V13.00,2013-06-15 21:14:00,
2013-06-15 15:19:00,75.4,35.0,29.91,North,0,0.0,0.0,23,0.00,,SKC,0.00,VWS V13.00,2013-06-15 21:19:00,
2013-06-15 15:25:00,75.7,34.2,29.91,North,0,0.0,0.0,22,0.00,,SKC,0.00,VWS V13.00,2013-06-15 21:25:00,
2013-06-15 15:30:00,75.9,34.4,29.91,North,0,0.0,0.0,22,0.00,,SKC,0.00,VWS V13.00,2013-06-15 21:30:00,
2013-06-15 15:35:00,76.3,34.7,29.91,North,0,0.0,0.0,22,0.00,,SKC,0.00,VWS V13.00,2013-06-15 21:35:00,
2013-06-15 15:40:00,76.3,34.7,29.91,North,0,0.0,0.0,22,0.00,,SKC,0.00,VWS V13.00,2013-06-15 21:40:00,
2013-06-15 15:45:00,76.5,34.8,29.91,North,0,0.0,0.0,22,0.00,,SKC,0.00,VWS V13.00,2013-06-15 21:45:00,
2013-06-15 15:50:00,76.6,33.8,29.91,North,0,0.0,0.0,21,0.00,,SKC,0.00,VWS V13.00,2013-06-15 21:50:00,
2013-06-15 15:55:00,76.6,33.8,29.91,North,0,0.0,0.0,21,0.00,,SKC,0.00,VWS V13.00,2013-06-15 21:55:00,
2013-06-15 16:00:00,76.3,33.5,29.91,North,0,0.0,0.0,21,0.00,,SKC,0.00,VWS V13.00,2013-06-15 22:00:00,
2013-06-15 16:05:00,75.6,32.9,29.91,North,0,0.0,0.0,21,0.00,,SKC,0.00,VWS V13.00,2013-06-15 22:05:00,
2013-06-15 16:10:00,75.2,32.6,29.91,North,0,0.0,0.0,21,0.00,,SKC,0.00,VWS V13.00,2013-06-15 22:10:00,
2013-06-15 16:15:00,75.6,32.9,29.91,North,0,0.0,0.0,21,0.00,,SKC,0.00,VWS V13.00,2013-06-15 22:15:00,
2013-06-15 16:20:00,75.7,33.1,29.91,North,0,0.0,0.0,21,0.00,,SKC,0.00,VWS V13.00,2013-06-15 22:20:00,
2013-06-15 16:25:00,75.6,32.9,29.91,North,0,0.0,0.0,21,0.00,,SKC,0.00,VWS V13.00,2013-06-15 22:25:00,
2013-06-15 16:30:00,75.4,33.9,29.91,North,0,0.0,0.0,22,0.00,,SKC,0.00,VWS V13.00,2013-06-15 22:30:00,
2013-06-15 16:35:00,75.4,32.8,29.91,North,0,0.0,0.0,21,0.00,,SKC,0.00,VWS V13.00,2013-06-15 22:35:00,
2013-06-15 16:40:00,75.6,34.1,29.91,North,0,0.0,0.0,22,0.00,,SKC,0.00,VWS V13.00,2013-06-15 22:40:00,
2013-06-15 16:45:00,75.6,32.9,29.91,North,0,0.0,0.0,21,0.00,,SKC,0.00,VWS V13.00,2013-06-15 22:45:00,
2013-06-15 16:50:00,75.6,32.9,29.91,North,0,0.0,0.0,21,0.00,,SKC,0.00,VWS V13.00,2013-06-15 22:50:00,
2013-06-15 16:55:00,75.6,32.9,29.91,North,0,0.0,0.0,21,0.00,,SKC,0.00,VWS V13.00,2013-06-15 22:55:00,
2013-06-15 17:00:00,75.6,32.9,29.91,North,0,0.0,0.0,21,0.00,,SKC,0.00,VWS V13.00,2013-06-15 23:00:00,
2013-06-15 17:05:00,75.7,33.1,29.91,North,0,0.0,0.0,21,0.00,,SKC,0.00,VWS V13.00,2013-06-15 23:05:00,
2013-06-15 17:10:00,75.4,33.9,29.91,North,0,0.0,0.0,22,0.00,,SKC,0.00,VWS V13.00,2013-06-15 23:10:00,
2013-06-15 17:16:00,75.0,33.6,29.91,North,0,0.0,0.0,22,0.00,,SKC,0.00,VWS V13.00,2013-06-15 23:16:00,
2013-06-15 17:21:00,74.7,32.2,29.91,North,0,0.0,0.0,21,0.00,,SKC,0.00,VWS V13.00,2013-06-15 23:21:00,
2013-06-15 17:25:00,74.5,33.2,29.91,North,0,0.0,0.0,22,0.00,,SKC,0.00,VWS V13.00,2013-06-15 23:25:00,
2013-06-15 17:31:00,74.1,31.7,29.91,North,0,0.0,0.0,21,0.00,,SKC,0.00,VWS V13.00,2013-06-15 23:31:00,
2013-06-15 17:36:00,73.9,32.7,29.91,North,0,0.0,0.0,22,0.00,,SKC,0.00,VWS V13.00,2013-06-15 23:36:00,
2013-06-15 17:41:00,73.4,32.3,29.91,North,0,0.0,0.0,22,0.00,,SKC,0.00,VWS V13.00,2013-06-15 23:41:00,
2013-06-15 17:46:00,73.0,33.1,29.91,North,0,0.0,0.0,23,0.00,,SKC,0.00,VWS V13.00,2013-06-15 23:46:00,
2013-06-15 17:51:00,72.9,34.0,29.91,North,0,0.0,0.0,24,0.00,,SKC,0.00,VWS V13.00,2013-06-15 23:51:00,
2013-06-15 17:56:00,72.7,33.8,29.91,North,0,0.0,0.0,24,0.00,,SKC,0.00,VWS V13.00,2013-06-15 23:56:00,
2013-06-15 18:01:00,72.3,33.5,29.91,North,0,0.0,0.0,24,0.00,,SKC,0.00,VWS V13.00,2013-06-16 00:01:00,
2013-06-15 18:06:00,71.8,34.1,29.91,North,0,0.0,0.0,25,0.00,,SKC,0.00,VWS V13.00,2013-06-16 00:06:00,
2013-06-15 18:11:00,71.2,34.6,29.91,North,0,0.0,0.0,26,0.00,,SKC,0.00,VWS V13.00,2013-06-16 00:11:00,
2013-06-15 18:16:00,71.1,36.3,29.91,North,0,0.0,0.0,28,0.00,,SKC,0.00,VWS V13.00,2013-06-16 00:16:00,
2013-06-15 18:21:00,70.9,37.1,29.91,North,0,0.0,0.0,29,0.00,,SKC,0.00,VWS V13.00,2013-06-16 00:21:00,
2013-06-15 18:26:00,70.5,36.8,29.91,North,0,0.0,0.0,29,0.00,,SKC,0.00,VWS V13.00,2013-06-16 00:26:00,
2013-06-15 18:31:00,70.2,36.5,29.91,North,0,0.0,0.0,29,0.00,,SKC,0.00,VWS V13.00,2013-06-16 00:31:00,
2013-06-15 18:36:00,69.8,37.0,29.91,North,0,0.0,0.0,30,0.00,,SKC,0.00,VWS V13.00,2013-06-16 00:36:00,
2013-06-15 18:41:00,69.4,38.3,29.91,North,0,0.0,0.0,32,0.00,,SKC,0.00,VWS V13.00,2013-06-16 00:41:00,
2013-06-15 18:46:00,69.3,39.0,29.91,North,0,0.0,0.0,33,0.00,,SKC,0.00,VWS V13.00,2013-06-16 00:46:00,
2013-06-15 18:51:00,69.1,38.8,29.91,North,0,0.0,0.0,33,0.00,,SKC,0.00,VWS V13.00,2013-06-16 00:51:00,
2013-06-15 18:56:00,68.9,38.6,29.91,North,0,0.0,0.0,33,0.00,,SKC,0.00,VWS V13.00,2013-06-16 00:56:00,
2013-06-15 19:01:00,68.5,38.3,29.91,North,0,0.0,0.0,33,0.00,,SKC,0.00,VWS V13.00,2013-06-16 01:01:00,
2013-06-15 19:06:00,68.2,38.0,29.91,North,0,0.0,0.0,33,0.00,,SKC,0.00,VWS V13.00,2013-06-16 01:06:00,
2013-06-15 19:11:00,67.8,38.5,29.91,North,0,0.0,0.0,34,0.00,,SKC,0.00,VWS V13.00,2013-06-16 01:11:00,
2013-06-15 19:16:00,67.5,38.1,29.91,North,0,0.0,0.0,34,0.00,,SKC,0.00,VWS V13.00,2013-06-16 01:16:00,
2013-06-15 19:21:00,67.1,37.8,29.91,North,0,0.0,0.0,34,0.00,,SKC,0.00,VWS V13.00,2013-06-16 01:21:00,
2013-06-15 19:26:00,66.7,37.5,29.91,North,0,0.0,0.0,34,0.00,,SKC,0.00,VWS V13.00,2013-06-16 01:26:00,
2013-06-15 19:31:00,66.6,37.3,29.93,North,0,0.0,0.0,34,0.00,,SKC,0.00,VWS V13.00,2013-06-16 01:31:00,
2013-06-15 19:36:00,66.4,37.2,29.93,North,0,0.0,0.0,34,0.00,,SKC,0.00,VWS V13.00,2013-06-16 01:36:00,
2013-06-15 19:42:00,66.2,37.8,29.93,North,0,0.0,0.0,35,0.00,,SKC,0.00,VWS V13.00,2013-06-16 01:42:00,
2013-06-15 19:47:00,66.0,38.3,29.93,North,0,0.0,0.0,36,0.00,,SKC,0.00,VWS V13.00,2013-06-16 01:47:00,
2013-06-15 19:52:00,65.8,38.2,29.93,North,0,0.0,0.0,36,0.00,,SKC,0.00,VWS V13.00,2013-06-16 01:52:00,
2013-06-15 19:57:00,65.7,38.7,29.93,North,0,0.0,0.0,37,0.00,,SKC,0.00,VWS V13.00,2013-06-16 01:57:00,
2013-06-15 20:02:00,65.7,38.7,29.91,North,0,0.0,0.0,37,0.00,,SKC,0.00,VWS V13.00,2013-06-16 02:02:00,
2013-06-15 20:07:00,65.1,37.5,29.91,North,0,0.0,0.0,36,0.00,,SKC,0.00,VWS V13.00,2013-06-16 02:07:00,
2013-06-15 20:12:00,64.4,38.3,29.91,North,0,0.0,0.0,38,0.00,,SKC,0.00,VWS V13.00,2013-06-16 02:12:00,
2013-06-15 20:17:00,63.9,39.1,29.91,North,0,0.0,0.0,40,0.00,,SKC,0.00,VWS V13.00,2013-06-16 02:17:00,
2013-06-15 20:22:00,63.1,38.5,29.91,North,0,0.0,0.0,40,0.00,,SKC,0.00,VWS V13.00,2013-06-16 02:22:00,
2013-06-15 20:27:00,62.6,38.0,29.91,North,0,0.0,0.0,40,0.00,,SKC,0.00,VWS V13.00,2013-06-16 02:27:00,
2013-06-15 20:32:00,62.1,39.3,29.93,North,0,0.0,0.0,43,0.00,,SKC,0.00,VWS V13.00,2013-06-16 02:32:00,
2013-06-15 20:37:00,61.3,38.1,29.93,North,0,0.0,0.0,42,0.00,,SKC,0.00,VWS V13.00,2013-06-16 02:37:00,
2013-06-15 20:42:00,60.8,38.8,29.93,North,0,0.0,0.0,44,0.00,,SKC,0.00,VWS V13.00,2013-06-16 02:42:00,
2013-06-15 20:47:00,60.3,38.3,29.93,North,0,0.0,0.0,44,0.00,,SKC,0.00,VWS V13.00,2013-06-16 02:47:00,
2013-06-15 20:52:00,59.7,37.8,29.93,North,0,0.0,0.0,44,0.00,,SKC,0.00,VWS V13.00,2013-06-16 02:52:00,
2013-06-15 20:57:00,59.4,36.9,29.93,North,0,0.0,0.0,43,0.00,,SKC,0.00,VWS V13.00,2013-06-16 02:57:00,
2013-06-15 21:02:00,59.0,36.6,29.93,North,0,0.0,0.0,43,0.00,,SKC,0.00,VWS V13.00,2013-06-16 03:02:00,
2013-06-15 21:07:00,58.8,35.8,29.93,North,0,0.0,0.0,42,0.00,,SKC,0.00,VWS V13.00,2013-06-16 03:07:00,
2013-06-15 21:12:00,58.5,36.1,29.93,North,0,0.0,0.0,43,0.00,,SKC,0.00,VWS V13.00,2013-06-16 03:12:00,
2013-06-15 21:17:00,58.1,34.5,29.93,North,0,0.0,0.0,41,0.00,,SKC,0.00,VWS V13.00,2013-06-16 03:17:00,
2013-06-15 21:22:00,57.9,34.4,29.93,North,0,0.0,0.0,41,0.00,,SKC,0.00,VWS V13.00,2013-06-16 03:22:00,
2013-06-15 21:27:00,57.4,33.9,29.93,North,0,0.0,0.0,41,0.00,,SKC,0.00,VWS V13.00,2013-06-16 03:27:00,
2013-06-15 21:33:00,56.8,34.0,29.93,North,0,0.0,0.0,42,0.00,,SKC,0.00,VWS V13.00,2013-06-16 03:33:00,
2013-06-15 21:38:00,56.5,33.1,29.93,North,0,0.0,0.0,41,0.00,,SKC,0.00,VWS V13.00,2013-06-16 03:38:00,
2013-06-15 21:43:00,55.9,32.0,29.93,North,0,0.0,0.0,40,0.00,,SKC,0.00,VWS V13.00,2013-06-16 03:43:00,
2013-06-15 21:48:00,55.6,32.3,29.93,North,0,0.0,0.0,41,0.00,,SKC,0.00,VWS V13.00,2013-06-16 03:48:00,
2013-06-15 21:53:00,55.0,32.4,29.93,North,0,0.0,0.0,42,0.00,,SKC,0.00,VWS V13.00,2013-06-16 03:53:00,
2013-06-15 21:58:00,54.5,31.3,29.93,North,0,0.0,0.0,41,0.00,,SKC,0.00,VWS V13.00,2013-06-16 03:58:00,
2013-06-15 22:01:00,54.5,31.3,29.93,North,0,0.0,0.0,41,0.00,,SKC,0.00,VWS V13.00,2013-06-16 04:01:00,
2013-06-15 22:02:00,54.3,31.1,29.93,North,0,0.0,0.0,41,0.00,,SKC,0.00,VWS V13.00,2013-06-16 04:02:00,
2013-06-15 22:07:00,54.0,32.0,29.93,North,0,0.0,0.0,43,0.00,,SKC,0.00,VWS V13.00,2013-06-16 04:07:00,
2013-06-15 22:12:00,53.6,31.1,29.93,North,0,0.0,0.0,42,0.00,,SKC,0.00,VWS V13.00,2013-06-16 04:12:00,
2013-06-15 22:17:00,53.4,32.1,29.93,North,0,0.0,0.0,44,0.00,,SKC,0.00,VWS V13.00,2013-06-16 04:17:00,
2013-06-15 22:22:00,53.1,31.7,29.93,North,0,0.0,0.0,44,0.00,,SKC,0.00,VWS V13.00,2013-06-16 04:22:00,
2013-06-15 22:27:00,52.7,31.4,29.93,North,0,0.0,0.0,44,0.00,,SKC,0.00,VWS V13.00,2013-06-16 04:27:00,
2013-06-15 22:32:00,52.5,31.2,29.93,North,0,0.0,0.0,44,0.00,,SKC,0.00,VWS V13.00,2013-06-16 04:32:00,
2013-06-15 22:37:00,52.3,31.6,29.93,North,0,0.0,0.0,45,0.00,,SKC,0.00,VWS V13.00,2013-06-16 04:37:00,
2013-06-15 22:42:00,52.2,31.5,29.93,North,0,0.0,0.0,45,0.00,,SKC,0.00,VWS V13.00,2013-06-16 04:42:00,
2013-06-15 22:47:00,52.0,30.8,29.93,North,0,0.0,0.0,44,0.00,,SKC,0.00,VWS V13.00,2013-06-16 04:47:00,
2013-06-15 22:52:00,51.8,31.7,29.93,North,0,0.0,0.0,46,0.00,,SKC,0.00,VWS V13.00,2013-06-16 04:52:00,
2013-06-15 22:57:00,51.4,31.4,29.93,North,0,0.0,0.0,46,0.00,,SKC,0.00,VWS V13.00,2013-06-16 04:57:00,
2013-06-15 23:02:00,51.1,30.5,29.93,North,0,0.0,0.0,45,0.00,,SKC,0.00,VWS V13.00,2013-06-16 05:02:00,
2013-06-15 23:07:00,50.9,29.8,29.93,North,0,0.0,0.0,44,0.00,,SKC,0.00,VWS V13.00,2013-06-16 05:07:00,
2013-06-15 23:12:00,50.7,29.6,29.93,North,0,0.0,0.0,44,0.00,,SKC,0.00,VWS V13.00,2013-06-16 05:12:00,
2013-06-15 23:17:00,50.5,28.9,29.93,North,0,0.0,0.0,43,0.00,,SKC,0.00,VWS V13.00,2013-06-16 05:17:00,
2013-06-15 23:22:00,50.5,27.7,29.93,North,0,0.0,0.0,41,0.00,,SKC,0.00,VWS V13.00,2013-06-16 05:22:00,
2013-06-15 23:27:00,50.9,28.6,29.93,North,0,0.0,0.0,42,0.00,,SKC,0.00,VWS V13.00,2013-06-16 05:27:00,
2013-06-15 23:32:00,50.9,28.1,29.93,North,0,0.0,0.0,41,0.00,,SKC,0.00,VWS V13.00,2013-06-16 05:32:00,
2013-06-15 23:37:00,50.7,27.3,29.93,North,0,0.0,0.0,40,0.00,,SKC,0.00,VWS V13.00,2013-06-16 05:37:00,
2013-06-15 23:42:00,50.9,28.1,29.93,North,0,0.0,0.0,41,0.00,,SKC,0.00,VWS V13.00,2013-06-16 05:42:00,
2013-06-15 23:47:00,50.9,28.6,29.93,North,0,0.0,0.0,42,0.00,,SKC,0.00,VWS V13.00,2013-06-16 05:47:00,
2013-06-15 23:52:00,50.7,27.9,29.93,North,0,0.0,0.0,41,0.00,,SKC,0.00,VWS V13.00,2013-06-16 05:52:00,
2013-06-15 23:57:00,50.5,27.1,29.93,North,0,0.0,0.0,40,0.00,,SKC,0.00,VWS V13.00,2013-06-16 05:57:00,